EDDS Airport Information

Runway Information
Runway 07 Length 10974 ft width 148 ft
Elevation 1267 ft Threshold 984 ft Heading 74
Runway 25 Length 10974 ft Width 148 ft
Elevation 1181 ft Threshold 0 ft Heading 254
Airport Frequencies
Type ATIS Name ATIS Frequency 126.125 MHZ
Type CLD Name CLNC DEL Frequency 121.9 MHZ
Type DIR Name DIR Frequency 119.85 MHZ
Type GND Name GND Frequency 118.6 MHZ
Type INFO Name LANGEN INF Frequency 128.95 MHZ
Type MISC Name DEICING Frequency 136.825 MHZ
Type PTD Name BASE OPS P Frequency 31.8 MHZ
Type RDR Name LANGEN RAD Frequency 119.2 MHZ
Type RMP Name APRON Frequency 121.7 MHZ
Type TWR Name TWR Frequency 118.8 MHZ
Airport Navaids
Type VOR-DME Name Luburg Frequency 109200 KHZ
Type NDB Name Stuttgart Frequency 306 KHZ
Type DME Name Stuttgart Frequency 115450 KHZ
Type NDB Name Stuttgart Frequency 384 KHZ
Airport Weather Information & NOTAM
ADDS - METARS form results

(1133 UTC 21 April 2018)
 
METAR text: EDDS 211120Z 03004KT 340V140 CAVOK 25/08 Q1020 NOSIG
Conditions at: EDDS (STUTTGART/ECHTER, DE) observed 1120 UTC 21 April 2018
Temperature: 25.0°C (77°F)
Dewpoint: 8.0°C (46°F) [RH = 34%]
Pressure (altimeter): 30.12 inches Hg (1020.0 mb)
Winds: from the NNE (30 degrees) at 5 MPH (4 knots; 2.1 m/s)
Visibility: 6 or more miles (10+ km)
Ceiling: ceiling and visibility are OK
Clouds: unknown
Weather: no significant weather observed at this time

METAR text: EDDS 211050Z VRB02KT CAVOK 25/09 Q1020 NOSIG
Conditions at: EDDS (STUTTGART/ECHTER, DE) observed 1050 UTC 21 April 2018
Temperature: 25.0°C (77°F)
Dewpoint: 9.0°C (48°F) [RH = 36%]
Pressure (altimeter): 30.12 inches Hg (1020.0 mb)
Winds: variable direction winds at 2 MPH (2 knots; 1.0 m/s)
Visibility: 6 or more miles (10+ km)
Ceiling: ceiling and visibility are OK
Clouds: unknown
Weather: no significant weather observed at this time